Time;durP1;ratioP1;P1;durP2;ratioP2;P2;SDS_P1;SDS_P2;PMS_P1;PMS_P2;Temp;Humidity;BMP_temperature;BMP_pressure;BME280_temperature;BME280_humidity;BME280_pressure;Samples;Min_cycle;Max_cycle;Signal;HPM_P1;HPM_P2
2023/09/29 00:00:34;;;;;;;19.70;13.10;;;;;;;17.35;63.82;101488.27;105258;1251;60536;-49
2023/09/29 00:03:02;;;;;;;20.00;14.10;;;;;;;17.34;63.71;101486.63;105129;1256;60361;-50
2023/09/29 00:05:30;;;;;;;17.10;13.10;;;;;;;17.32;63.80;101487.69;105528;1251;63653;-51
2023/09/29 00:07:58;;;;;;;18.00;13.30;;;;;;;17.28;63.69;101487.15;107271;1252;60382;-50
2023/09/29 00:10:25;;;;;;;19.20;12.70;;;;;;;17.23;63.76;101484.71;105085;1253;63679;-49
2023/09/29 00:12:53;;;;;;;20.70;12.30;;;;;;;17.20;63.77;101484.35;105136;1253;63027;-49
2023/09/29 00:15:21;;;;;;;20.50;13.10;;;;;;;17.18;63.96;101481.86;105627;1257;60605;-49
2023/09/29 00:17:49;;;;;;;18.70;12.80;;;;;;;17.20;64.31;101480.43;107627;1255;64981;-49
2023/09/29 00:22:45;;;;;;;15.90;12.90;;;;;;;17.17;64.20;101479.79;105078;1253;63722;-49
2023/09/29 00:25:13;;;;;;;15.80;13.20;;;;;;;17.15;64.21;101481.09;105245;1253;60463;-49
2023/09/29 00:27:40;;;;;;;18.70;13.90;;;;;;;17.12;64.18;101479.02;105325;1256;60345;-50
2023/09/29 00:30:09;;;;;;;20.40;13.10;;;;;;;17.08;64.06;101480.13;105053;1253;63805;-51
2023/09/29 00:32:37;;;;;;;15.10;12.10;;;;;;;17.06;63.97;101478.33;106025;1251;61823;-50
2023/09/29 00:35:07;;;;;;;17.80;12.80;;;;;;;17.05;64.06;101479.83;105172;1253;63703;-50
2023/09/29 00:37:36;;;;;;;18.70;13.00;;;;;;;17.04;64.23;101480.58;106399;1256;60559;-50
2023/09/29 00:40:12;;;;;;;15.40;12.80;;;;;;;17.03;64.48;101478.83;105288;1251;60550;-49
2023/09/29 00:42:43;;;;;;;20.70;14.20;;;;;;;17.01;64.54;101478.23;105492;1253;64993;-49
2023/09/29 00:45:12;;;;;;;17.40;13.80;;;;;;;16.99;64.55;101478.98;105042;1254;61370;-49
2023/09/29 00:47:42;;;;;;;16.70;12.20;;;;;;;16.96;64.76;101481.19;105396;1251;62470;-49
2023/09/29 00:50:10;;;;;;;19.40;13.00;;;;;;;16.98;64.74;101480.00;109091;1252;60706;-50
2023/09/29 00:52:38;;;;;;;16.20;12.30;;;;;;;17.00;64.53;101476.79;108588;1253;59215;-50
2023/09/29 00:55:10;;;;;;;15.50;12.60;;;;;;;17.04;64.33;101477.94;104932;1253;65739;-49
2023/09/29 00:57:42;;;;;;;18.00;12.70;;;;;;;17.03;64.21;101480.70;109058;1252;61367;-53
2023/09/29 01:00:19;;;;;;;19.20;13.40;;;;;;;17.00;64.24;101481.53;109158;1255;63714;-51
2023/09/29 01:02:46;;;;;;;19.30;13.40;;;;;;;16.99;64.24;101477.92;107608;1253;60461;-51
2023/09/29 01:05:14;;;;;;;18.80;14.00;;;;;;;16.99;64.19;101478.45;106013;1259;60463;-50
2023/09/29 01:07:41;;;;;;;20.00;12.80;;;;;;;16.96;64.04;101476.90;105240;1251;65087;-51
2023/09/29 01:10:11;;;;;;;17.50;13.60;;;;;;;16.94;63.76;101475.31;105216;1253;61460;-52
2023/09/29 01:12:39;;;;;;;18.00;13.00;;;;;;;16.94;63.80;101475.00;106067;1253;62534;-52
2023/09/29 01:15:07;;;;;;;18.20;12.70;;;;;;;16.93;63.66;101475.98;105350;1254;60510;-52
2023/09/29 01:17:35;;;;;;;17.70;13.00;;;;;;;16.88;63.80;101478.32;105312;1252;60475;-52
2023/09/29 01:20:05;;;;;;;20.30;13.90;;;;;;;16.83;64.16;101482.52;106324;1253;65074;-53
2023/09/29 01:22:33;;;;;;;16.90;13.60;;;;;;;16.80;64.20;101484.54;105436;1253;62427;-52
2023/09/29 01:25:00;;;;;;;19.90;14.30;;;;;;;16.77;64.29;101480.92;104994;1253;63812;-51
2023/09/29 01:27:28;;;;;;;16.60;13.20;;;;;;;16.74;64.05;101480.11;105063;1254;60608;-52
2023/09/29 01:29:55;;;;;;;17.80;12.00;;;;;;;16.73;64.02;101480.16;105080;1251;60426;-52
2023/09/29 01:32:23;;;;;;;19.40;13.00;;;;;;;16.73;64.00;101480.33;104974;1251;63714;-53
2023/09/29 01:34:50;;;;;;;17.50;13.20;;;;;;;16.74;64.07;101487.55;105098;1257;60835;-51
2023/09/29 01:37:21;;;;;;;18.30;13.20;;;;;;;16.72;64.10;101485.54;105177;1253;62573;-51
2023/09/29 01:39:49;;;;;;;17.30;13.20;;;;;;;16.69;64.12;101486.88;105198;1253;61111;-53
2023/09/29 01:42:16;;;;;;;16.30;11.60;;;;;;;16.66;64.17;101488.02;105130;1251;60496;-46
2023/09/29 01:44:44;;;;;;;18.30;12.10;;;;;;;16.61;64.16;101487.10;105143;1257;73805;-51
2023/09/29 01:47:11;;;;;;;13.70;10.30;;;;;;;16.58;64.25;101483.66;105129;1256;61454;-51
2023/09/29 01:49:39;;;;;;;11.70;9.80;;;;;;;16.59;64.24;101485.52;105335;1256;62504;-52
2023/09/29 01:52:07;;;;;;;14.20;10.40;;;;;;;16.61;64.07;101485.52;105057;1253;60649;-51
2023/09/29 01:54:35;;;;;;;16.50;11.20;;;;;;;16.60;63.95;101482.08;105376;1251;60863;-51
2023/09/29 01:57:03;;;;;;;15.30;10.60;;;;;;;16.56;64.10;101484.36;105653;1253;63700;-51
2023/09/29 01:59:31;;;;;;;13.10;10.40;;;;;;;16.51;64.12;101488.49;105562;1251;61879;-51
2023/09/29 02:01:59;;;;;;;16.40;11.10;;;;;;;16.46;63.99;101488.58;109133;1251;63725;-52
2023/09/29 02:04:26;;;;;;;15.60;10.80;;;;;;;16.42;64.03;101486.61;106445;1253;60455;-53
2023/09/29 02:06:54;;;;;;;13.00;9.70;;;;;;;16.38;63.98;101485.70;105746;1254;60531;-53
2023/09/29 02:09:21;;;;;;;12.60;9.10;;;;;;;16.39;63.92;101488.86;105215;1253;64941;-53
2023/09/29 02:11:49;;;;;;;12.00;8.80;;;;;;;16.39;63.87;101489.39;105182;1251;60533;-52
2023/09/29 02:14:17;;;;;;;9.20;7.70;;;;;;;16.38;63.86;101485.02;106804;1251;63764;-50
2023/09/29 02:16:45;;;;;;;11.80;8.60;;;;;;;16.36;63.89;101481.82;105099;1255;60555;-50
2023/09/29 02:19:13;;;;;;;14.60;8.80;;;;;;;16.33;64.04;101482.06;104992;1257;60292;-48
2023/09/29 02:21:45;;;;;;;13.00;8.70;;;;;;;16.31;64.20;101486.34;106287;1253;65152;-50
2023/09/29 02:24:13;;;;;;;13.60;10.40;;;;;;;16.28;64.35;101489.41;105956;1251;61838;-59
2023/09/29 02:26:41;;;;;;;13.00;9.70;;;;;;;16.25;64.40;101490.20;105164;1251;63719;-57
2023/09/29 02:29:09;;;;;;;12.40;8.20;;;;;;;16.25;64.37;101495.18;105475;1257;60452;-57
2023/09/29 02:31:36;;;;;;;12.20;8.10;;;;;;;16.25;64.29;101491.83;105028;1253;60681;-59
2023/09/29 02:34:04;;;;;;;10.90;8.50;;;;;;;16.23;64.23;101492.15;106186;1251;65963;-60
2023/09/29 02:36:34;;;;;;;11.00;8.10;;;;;;;16.21;64.22;101493.79;105397;1251;61377;-60
2023/09/29 02:39:04;;;;;;;13.30;9.50;;;;;;;16.17;64.23;101494.81;105239;1253;63777;-60
2023/09/29 02:41:31;;;;;;;10.60;9.10;;;;;;;16.12;64.15;101493.61;105307;1256;60527;-60
2023/09/29 02:43:59;;;;;;;13.30;9.30;;;;;;;16.06;64.30;101491.48;105343;1253;60530;-59
2023/09/29 02:46:26;;;;;;;10.80;7.60;;;;;;;16.00;64.26;101488.77;105234;1253;64898;-53
2023/09/29 02:48:53;;;;;;;11.80;7.70;;;;;;;15.98;64.17;101489.70;105364;1257;60822;-54
2023/09/29 02:51:22;;;;;;;11.30;8.90;;;;;;;15.97;64.25;101489.77;105686;1253;63751;-54
2023/09/29 02:53:54;;;;;;;11.20;8.50;;;;;;;15.98;64.41;101490.71;105209;1252;60493;-53
2023/09/29 02:56:23;;;;;;;12.70;9.00;;;;;;;16.00;64.47;101490.24;105828;1256;60365;-53
2023/09/29 02:58:54;;;;;;;11.90;8.50;;;;;;;15.99;64.40;101489.77;105697;1251;64941;-53
2023/09/29 03:01:22;;;;;;;13.10;8.30;;;;;;;15.96;64.31;101490.90;105699;1253;61342;-58
2023/09/29 03:03:54;;;;;;;12.50;9.50;;;;;;;15.93;64.15;101489.23;105315;1251;62810;-60
2023/09/29 03:06:22;;;;;;;11.90;9.50;;;;;;;15.89;64.16;101488.83;105707;1254;60431;-59
2023/09/29 03:08:54;;;;;;;14.20;9.30;;;;;;;15.88;64.05;101487.71;105882;1252;60477;-59
2023/09/29 03:11:25;;;;;;;11.80;8.30;;;;;;;15.90;64.03;101490.23;105837;1253;64959;-59
2023/09/29 03:13:55;;;;;;;13.50;9.30;;;;;;;15.90;63.96;101491.13;105412;1253;63958;-59
2023/09/29 03:16:26;;;;;;;12.70;9.50;;;;;;;15.86;64.13;101490.51;105256;1251;64185;-59
2023/09/29 03:18:55;;;;;;;14.60;10.00;;;;;;;15.80;64.11;101488.35;105327;1253;60530;-60
2023/09/29 03:21:23;;;;;;;13.80;10.50;;;;;;;15.74;63.95;101488.16;105706;1253;60333;-59
2023/09/29 03:23:51;;;;;;;15.30;10.60;;;;;;;15.67;64.06;101487.30;105449;1256;65441;-59
2023/09/29 03:26:22;;;;;;;18.50;12.10;;;;;;;15.63;64.20;101485.89;105812;1256;60526;-59
2023/09/29 03:28:49;;;;;;;14.80;12.00;;;;;;;15.64;64.34;101484.06;105302;1254;62460;-59
2023/09/29 03:31:22;;;;;;;18.80;10.80;;;;;;;15.65;64.34;101485.77;105232;1254;60518;-58
2023/09/29 03:33:51;;;;;;;13.90;10.40;;;;;;;15.66;64.38;101485.28;105309;1253;60854;-59
2023/09/29 03:36:21;;;;;;;17.00;11.00;;;;;;;15.65;64.36;101486.62;106837;1252;64917;-57
2023/09/29 03:38:48;;;;;;;14.50;10.70;;;;;;;15.61;64.34;101486.79;105254;1252;61368;-60
2023/09/29 03:41:16;;;;;;;16.60;11.20;;;;;;;15.57;64.44;101487.76;105884;1253;63692;-59
2023/09/29 03:43:44;;;;;;;15.80;11.50;;;;;;;15.55;64.43;101484.80;105444;1253;60455;-59
2023/09/29 03:46:21;;;;;;;13.60;10.70;;;;;;;15.50;64.49;101483.08;105141;1257;60413;-57
2023/09/29 03:48:48;;;;;;;12.90;9.70;;;;;;;15.49;64.50;101481.77;105371;1252;72577;-59
2023/09/29 03:51:21;;;;;;;15.50;11.00;;;;;;;15.47;64.44;101483.34;105331;1257;60717;-58
2023/09/29 03:53:53;;;;;;;14.90;10.30;;;;;;;15.44;64.52;101482.89;105968;1253;63727;-58
2023/09/29 03:56:23;;;;;;;13.50;10.00;;;;;;;15.39;64.62;101487.81;107541;1253;60541;-58
2023/09/29 03:58:53;;;;;;;14.00;10.80;;;;;;;15.33;64.70;101488.33;105701;1256;60607;-59
2023/09/29 04:01:22;;;;;;;14.10;10.20;;;;;;;15.28;64.61;101487.67;105234;1256;64896;-61
2023/09/29 04:03:49;;;;;;;12.60;10.70;;;;;;;15.24;64.59;101492.44;105135;1251;61319;-59
2023/09/29 04:06:18;;;;;;;15.10;11.30;;;;;;;15.20;64.66;101492.41;105329;1253;62457;-59
2023/09/29 04:08:47;;;;;;;13.80;10.20;;;;;;;15.18;64.54;101495.58;105165;1251;60515;-59
2023/09/29 04:11:14;;;;;;;11.50;10.10;;;;;;;15.18;64.39;101490.46;106765;1257;59231;-57
2023/09/29 04:13:43;;;;;;;15.30;10.30;;;;;;;15.19;64.54;101493.73;106759;1256;68639;-57
2023/09/29 04:16:10;;;;;;;14.40;11.30;;;;;;;15.22;64.64;101494.05;105241;1252;61366;-57
2023/09/29 04:18:38;;;;;;;16.50;11.20;;;;;;;15.25;64.54;101494.66;105097;1256;62430;-58
2023/09/29 04:21:11;;;;;;;13.70;10.70;;;;;;;15.26;64.39;101494.07;105404;1257;60579;-60
2023/09/29 04:23:39;;;;;;;13.70;10.50;;;;;;;15.25;64.20;101496.44;105297;1251;60531;-59
2023/09/29 04:26:14;;;;;;;14.40;11.30;;;;;;;15.22;64.15;101493.45;105067;1253;65145;-61
2023/09/29 04:28:42;;;;;;;14.70;11.30;;;;;;;15.24;63.99;101492.80;105317;1253;60647;-55
2023/09/29 04:31:10;;;;;;;13.90;11.10;;;;;;;15.25;63.93;101495.77;105170;1257;62501;-59
2023/09/29 04:33:38;;;;;;;16.60;12.40;;;;;;;15.23;64.02;101493.91;105200;1258;60434;-56
2023/09/29 04:36:06;;;;;;;15.50;11.80;;;;;;;15.20;64.22;101492.42;106083;1256;60358;-54
2023/09/29 04:38:34;;;;;;;13.80;11.50;;;;;;;15.17;64.39;101494.05;105119;1257;64901;-52
2023/09/29 04:41:02;;;;;;;17.10;12.70;;;;;;;15.16;64.49;101492.77;105478;1256;60433;-55
2023/09/29 04:43:30;;;;;;;15.90;12.10;;;;;;;15.18;64.66;101490.65;109063;1251;63680;-51
2023/09/29 04:45:58;;;;;;;14.20;11.00;;;;;;;15.22;64.71;101489.48;109262;1251;58242;-56
2023/09/29 04:48:25;;;;;;;15.60;11.70;;;;;;;15.28;64.65;101488.95;109243;1252;58732;-59
2023/09/29 04:50:54;;;;;;;15.20;11.80;;;;;;;15.31;64.71;101488.02;109317;1253;64956;-54
2023/09/29 04:53:22;;;;;;;16.30;12.40;;;;;;;15.33;64.96;101485.48;109330;1253;61385;-55
2023/09/29 04:55:49;;;;;;;17.20;14.10;;;;;;;15.36;64.96;101488.07;109237;1253;62455;-58
2023/09/29 04:58:17;;;;;;;17.90;13.50;;;;;;;15.40;65.06;101486.71;105880;1256;60879;-56
2023/09/29 05:00:44;;;;;;;17.00;13.10;;;;;;;15.43;65.15;101492.32;105200;1256;60358;-58
2023/09/29 05:03:13;;;;;;;15.30;12.70;;;;;;;15.50;65.23;101493.71;107824;1253;63657;-57
2023/09/29 05:05:41;;;;;;;15.80;13.20;;;;;;;15.58;65.24;101492.30;106079;1256;61440;-58
2023/09/29 05:08:08;;;;;;;21.10;13.70;;;;;;;15.68;65.26;101498.56;105093;1253;63739;-56
2023/09/29 05:10:39;;;;;;;19.40;15.70;;;;;;;15.75;65.41;101500.14;105513;1252;60427;-55
2023/09/29 05:13:07;;;;;;;23.80;17.90;;;;;;;15.79;65.38;101505.30;105551;1253;60559;-60
2023/09/29 05:15:36;;;;;;;27.80;19.10;;;;;;;15.83;65.30;101508.13;105463;1253;64962;-55
2023/09/29 05:18:05;;;;;;;39.60;22.20;;;;;;;15.87;65.20;101509.92;105387;1253;60576;-54
2023/09/29 05:20:33;;;;;;;31.00;22.50;;;;;;;15.94;65.10;101506.01;105311;1258;65605;-58
2023/09/29 05:23:01;;;;;;;32.40;24.10;;;;;;;16.03;65.11;101507.64;105366;1253;60659;-56
2023/09/29 05:25:28;;;;;;;33.10;24.40;;;;;;;16.12;65.03;101511.14;105249;1254;60562;-51
2023/09/29 05:27:56;;;;;;;35.10;24.30;;;;;;;16.21;65.11;101509.69;105437;1253;63673;-61
2023/09/29 05:30:24;;;;;;;29.80;22.00;;;;;;;16.27;65.11;101510.40;105317;1257;60277;-57
2023/09/29 05:32:52;;;;;;;31.00;22.20;;;;;;;16.31;65.20;101512.14;106098;1256;62405;-62
2023/09/29 05:35:20;;;;;;;31.50;21.50;;;;;;;16.37;65.16;101508.31;105283;1256;60654;-56
2023/09/29 05:37:47;;;;;;;26.00;18.30;;;;;;;16.45;65.05;101509.00;105433;1256;60565;-57
2023/09/29 05:40:15;;;;;;;24.70;19.90;;;;;;;16.56;64.92;101504.89;105377;1256;64961;-57
2023/09/29 05:42:43;;;;;;;27.40;18.90;;;;;;;16.66;64.88;101505.23;105261;1252;61556;-60
2023/09/29 05:45:20;;;;;;;24.10;18.90;;;;;;;16.74;64.78;101508.27;105890;1253;63754;-56
2023/09/29 05:47:51;;;;;;;21.60;16.90;;;;;;;16.81;64.75;101508.70;106207;1252;60500;-60
2023/09/29 05:50:19;;;;;;;24.70;17.30;;;;;;;16.87;64.78;101504.79;106170;1253;60390;-58
2023/09/29 05:52:47;;;;;;;22.10;16.20;;;;;;;16.93;64.56;101503.65;105338;1256;65483;-61
2023/09/29 05:55:35;;;;;;;19.40;15.70;;;;;;;17.00;64.37;101500.65;105167;1253;61413;-56
2023/09/29 05:58:03;;;;;;;20.10;14.40;;;;;;;17.11;64.42;101498.76;105335;1253;72008;-57
2023/09/29 06:00:30;;;;;;;20.00;15.40;;;;;;;17.21;64.24;101500.40;105467;1253;60615;-58
2023/09/29 06:02:59;;;;;;;19.90;15.60;;;;;;;17.30;64.04;101496.25;105120;1253;60552;-56
2023/09/29 06:05:28;;;;;;;19.40;15.10;;;;;;;17.39;63.74;101495.25;105631;1254;64937;-56
2023/09/29 06:07:56;;;;;;;21.20;14.60;;;;;;;17.46;63.39;101493.80;105345;1256;60425;-58
2023/09/29 06:10:25;;;;;;;22.20;16.20;;;;;;;17.50;63.16;101496.30;106518;1253;63854;-54
2023/09/29 06:12:53;;;;;;;18.60;14.40;;;;;;;17.54;63.13;101491.56;105796;1253;60587;-66
2023/09/29 06:15:21;;;;;;;19.40;13.40;;;;;;;17.62;62.95;101492.95;105176;1252;60575;-63
2023/09/29 06:17:49;;;;;;;18.20;13.90;;;;;;;17.71;62.72;101497.23;105081;1259;63643;-63
2023/09/29 06:20:18;;;;;;;17.70;14.20;;;;;;;17.81;62.52;101496.64;108419;1253;61464;-63
2023/09/29 06:22:46;;;;;;;16.30;13.80;;;;;;;17.90;62.08;101494.12;105702;1253;66216;-61
2023/09/29 06:25:14;;;;;;;18.80;14.70;;;;;;;17.96;61.73;101492.79;105286;1253;60443;-62
2023/09/29 06:27:41;;;;;;;21.70;15.20;;;;;;;18.01;61.15;101495.36;105231;1251;60459;-60
2023/09/29 06:30:09;;;;;;;19.60;14.80;;;;;;;18.05;61.06;101495.74;105177;1254;64879;-67
2023/09/29 06:32:37;;;;;;;24.80;16.10;;;;;;;18.08;60.90;101496.52;105020;1257;60432;-69
2023/09/29 06:35:06;;;;;;;26.00;13.40;;;;;;;18.11;60.63;101499.29;106742;1256;64168;-65
2023/09/29 06:37:33;;;;;;;26.30;16.10;;;;;;;18.17;60.49;101503.09;105115;1253;60544;-64
2023/09/29 06:40:02;;;;;;;22.60;14.80;;;;;;;18.25;60.47;101499.48;105186;1253;62240;-65
2023/09/29 06:42:29;;;;;;;25.60;14.30;;;;;;;18.29;60.18;101500.14;105521;1252;63635;-68
2023/09/29 06:44:57;;;;;;;20.00;13.60;;;;;;;18.31;59.72;101498.73;105000;1253;70105;-67
2023/09/29 06:47:24;;;;;;;21.90;14.50;;;;;;;18.32;59.54;101500.44;105368;1257;62456;-65
2023/09/29 06:49:52;;;;;;;19.00;14.20;;;;;;;18.33;59.58;101504.08;105472;1259;340356;-70
2023/09/29 07:05:21;;;;;;;16.20;13.10;;;;;;;18.67;59.15;101500.05;103122;1290;605244;-67
2023/09/29 07:07:49;;;;;;;17.30;12.50;;;;;;;19.27;58.13;101501.43;104151;1272;179893;-64
2023/09/29 07:10:17;;;;;;;17.20;12.40;;;;;;;19.32;58.07;101504.14;104358;1269;59262;-69
2023/09/29 07:12:46;;;;;;;18.10;12.90;;;;;;;19.36;57.87;101506.02;104378;1269;65937;-69
2023/09/29 07:15:14;;;;;;;19.40;13.90;;;;;;;19.37;57.82;101503.46;105025;1267;60566;-60
2023/09/29 07:17:42;;;;;;;18.60;13.80;;;;;;;19.34;57.33;101501.80;104500;1270;63079;-59
2023/09/29 07:20:12;;;;;;;17.60;13.80;;;;;;;19.30;57.06;101501.60;104360;1266;59340;-56
2023/09/29 07:22:40;;;;;;;17.40;13.10;;;;;;;19.30;57.42;101500.39;104331;1267;59049;-56
2023/09/29 07:25:08;;;;;;;17.00;12.60;;;;;;;19.33;57.68;101499.25;104383;1270;62104;-55
2023/09/29 07:27:36;;;;;;;16.50;12.00;;;;;;;19.36;57.27;101500.21;104676;1267;61547;-56
2023/09/29 07:30:04;;;;;;;16.10;11.80;;;;;;;19.43;56.84;101496.64;104563;1267;63689;-56
2023/09/29 07:32:32;;;;;;;19.20;13.80;;;;;;;19.49;56.98;101498.36;104586;1266;59657;-57
2023/09/29 07:35:00;;;;;;;19.30;14.00;;;;;;;19.54;57.32;101499.56;104350;1269;59628;-57
2023/09/29 07:37:28;;;;;;;20.90;13.80;;;;;;;19.59;57.47;101503.91;104674;1270;64224;-59
2023/09/29 07:39:58;;;;;;;19.40;13.60;;;;;;;19.63;57.54;101500.17;104689;1266;60162;-55
2023/09/29 07:42:25;;;;;;;15.10;12.50;;;;;;;19.65;57.53;101497.25;104446;1270;63708;-58
2023/09/29 07:44:52;;;;;;;19.30;12.20;;;;;;;19.71;57.24;101498.80;104890;1261;61594;-55
2023/09/29 07:47:20;;;;;;;21.60;13.00;;;;;;;19.78;57.17;101494.48;105000;1257;60510;-59
2023/09/29 07:49:48;;;;;;;19.00;12.40;;;;;;;19.85;56.94;101493.14;104925;1261;63013;-59
2023/09/29 07:52:15;;;;;;;14.10;11.40;;;;;;;19.90;56.47;101495.63;104992;1260;64238;-55
2023/09/29 07:54:43;;;;;;;21.90;12.60;;;;;;;19.96;56.10;101493.42;104842;1261;62589;-60
2023/09/29 07:57:11;;;;;;;18.10;12.10;;;;;;;20.02;55.63;101493.66;104860;1264;60369;-59
2023/09/29 07:59:38;;;;;;;19.60;11.30;;;;;;;20.06;55.35;101491.89;105020;1257;59704;-58
2023/09/29 08:02:06;;;;;;;16.90;11.40;;;;;;;20.10;54.67;101491.11;104941;1257;64281;-60
2023/09/29 08:04:33;;;;;;;15.60;10.50;;;;;;;20.13;53.81;101489.55;104892;1261;60181;-53
2023/09/29 08:07:02;;;;;;;15.60;11.40;;;;;;;20.18;53.71;101489.07;108889;1257;63758;-53
2023/09/29 08:09:32;;;;;;;14.60;11.10;;;;;;;20.24;53.94;101492.71;108953;1257;58838;-54
2023/09/29 08:12:00;;;;;;;15.00;10.40;;;;;;;20.34;54.29;101492.33;108928;1257;59631;-53
2023/09/29 08:14:27;;;;;;;13.30;10.10;;;;;;;20.48;54.51;101489.08;108941;1255;64157;-54
2023/09/29 08:16:55;;;;;;;14.20;10.10;;;;;;;20.68;53.85;101487.10;105466;1260;60228;-55
2023/09/29 08:19:23;;;;;;;14.30;10.40;;;;;;;20.85;52.91;101488.79;105029;1257;62583;-55
2023/09/29 08:21:51;;;;;;;16.50;11.60;;;;;;;20.98;52.22;101486.79;105082;1257;59680;-56
2023/09/29 08:24:18;;;;;;;17.70;11.10;;;;;;;21.06;51.67;101486.95;105026;1263;59637;-54
2023/09/29 08:26:45;;;;;;;18.50;10.60;;;;;;;21.13;51.52;101483.13;105005;1257;64104;-55
2023/09/29 08:29:16;;;;;;;19.50;11.50;;;;;;;21.21;52.03;101478.71;105112;1258;73057;-57
2023/09/29 08:31:43;;;;;;;14.30;11.20;;;;;;;21.26;51.51;101474.56;104837;1260;63802;-54
2023/09/29 08:34:11;;;;;;;17.10;11.50;;;;;;;21.30;51.44;101472.23;104878;1258;59774;-54
2023/09/29 08:36:39;;;;;;;15.80;11.10;;;;;;;21.34;51.12;101468.75;104913;1261;59740;-55
2023/09/29 08:39:07;;;;;;;13.60;10.60;;;;;;;21.38;50.56;101469.23;104958;1261;64193;-56
2023/09/29 08:41:35;;;;;;;16.20;11.10;;;;;;;21.42;50.63;101469.38;105099;1263;62236;-53
2023/09/29 08:44:03;;;;;;;14.70;10.20;;;;;;;21.45;51.17;101468.45;105274;1260;62456;-54
2023/09/29 08:46:35;;;;;;;15.90;12.00;;;;;;;21.51;51.39;101468.55;105079;1264;59908;-55
2023/09/29 08:49:05;;;;;;;18.90;10.40;;;;;;;21.58;51.24;101469.38;105772;1257;59717;-53
2023/09/29 08:51:33;;;;;;;20.00;10.90;;;;;;;21.63;50.60;101469.53;105803;1257;63251;-52
2023/09/29 08:54:02;;;;;;;16.80;10.70;;;;;;;21.69;49.92;101471.19;104999;1263;61401;-54
2023/09/29 08:56:30;;;;;;;15.00;9.70;;;;;;;21.76;48.94;101473.01;106365;1255;63671;-53
2023/09/29 08:59:01;;;;;;;18.90;9.70;;;;;;;21.85;48.92;101469.17;105388;1254;59624;-54
2023/09/29 09:01:30;;;;;;;11.20;9.20;;;;;;;21.96;48.61;101466.32;106030;1257;59736;-53
2023/09/29 09:03:58;;;;;;;11.40;9.80;;;;;;;22.08;48.52;101464.61;105451;1258;64728;-54
2023/09/29 09:06:30;;;;;;;14.90;10.40;;;;;;;22.18;47.63;101461.45;105390;1260;71215;-52
2023/09/29 09:08:59;;;;;;;13.30;11.10;;;;;;;22.28;47.67;101460.70;107971;1254;64534;-53
2023/09/29 09:11:28;;;;;;;17.00;10.10;;;;;;;22.42;47.92;101462.13;105238;1259;61100;-52
2023/09/29 09:13:59;;;;;;;20.60;10.80;;;;;;;22.52;47.76;101461.21;105873;1260;59704;-50
2023/09/29 09:16:28;;;;;;;17.00;11.30;;;;;;;22.59;47.36;101460.15;107105;1254;64272;-54
2023/09/29 09:18:56;;;;;;;18.50;10.80;;;;;;;22.66;47.69;101458.77;105783;1254;72485;-55
2023/09/29 09:21:43;;;;;;;13.20;10.40;;;;;;;22.72;47.58;101461.65;105556;1254;64663;-54
2023/09/29 09:24:21;;;;;;;23.30;11.00;;;;;;;22.81;47.81;101461.13;105532;1254;59813;-55
2023/09/29 09:26:49;;;;;;;14.80;11.10;;;;;;;22.91;47.70;101458.79;106154;1254;59880;-56
2023/09/29 09:29:19;;;;;;;14.10;9.80;;;;;;;23.00;47.80;101458.09;106049;1254;65050;-54
2023/09/29 09:31:52;;;;;;;23.30;10.50;;;;;;;23.10;47.69;101459.20;109115;1254;60276;-55
2023/09/29 09:34:33;;;;;;;12.30;8.60;;;;;;;23.20;46.61;101458.92;109109;1254;65504;-54
2023/09/29 09:37:02;;;;;;;12.50;9.40;;;;;;;23.29;45.43;101457.55;108979;1254;57633;-55
2023/09/29 09:39:30;;;;;;;14.80;9.70;;;;;;;23.42;44.82;101459.33;105403;1254;59759;-56
2023/09/29 09:41:58;;;;;;;13.50;9.40;;;;;;;23.54;44.58;101457.70;109182;1253;64805;-54
2023/09/29 09:44:26;;;;;;;12.50;8.50;;;;;;;23.67;44.16;101456.53;109071;1254;61333;-57
2023/09/29 09:47:00;;;;;;;11.20;9.30;;;;;;;23.80;43.51;101457.86;109184;1254;63756;-57
2023/09/29 09:49:34;;;;;;;12.20;7.60;;;;;;;23.94;43.26;101455.48;109023;1254;57429;-57
2023/09/29 09:52:12;;;;;;;12.30;8.30;;;;;;;24.07;42.71;101449.59;109153;1253;57724;-55
2023/09/29 09:54:46;;;;;;;11.10;8.30;;;;;;;24.23;41.90;101446.10;109008;1254;66871;-56
2023/09/29 09:57:20;;;;;;;12.50;8.60;;;;;;;24.38;42.10;101445.64;106011;1259;61237;-56
2023/09/29 09:59:48;;;;;;;14.60;8.80;;;;;;;24.53;41.48;101442.46;109105;1254;63956;-56
2023/09/29 10:02:18;;;;;;;12.00;6.90;;;;;;;24.65;40.12;101439.30;109182;1254;57761;-54
2023/09/29 10:04:46;;;;;;;13.10;7.20;;;;;;;24.77;38.86;101433.52;108939;1253;57442;-53
2023/09/29 10:07:14;;;;;;;11.40;7.10;;;;;;;24.86;38.08;101431.29;109029;1254;64622;-54
2023/09/29 10:09:46;;;;;;;11.80;7.00;;;;;;;24.90;37.70;101436.09;105198;1259;72391;-54
2023/09/29 10:12:28;;;;;;;13.50;6.90;;;;;;;24.91;36.77;101433.65;105198;1259;63766;-53
2023/09/29 10:14:56;;;;;;;10.50;7.10;;;;;;;24.91;35.49;101428.77;105510;1260;61056;-54
2023/09/29 10:17:24;;;;;;;8.80;6.50;;;;;;;24.92;35.71;101425.17;105180;1254;59510;-55
2023/09/29 10:19:54;;;;;;;9.70;7.00;;;;;;;24.97;35.26;101422.41;106634;1254;64472;-56
2023/09/29 10:22:25;;;;;;;9.80;6.70;;;;;;;25.02;36.33;101420.02;105215;1254;60329;-57
2023/09/29 10:24:56;;;;;;;11.40;6.80;;;;;;;25.07;36.75;101414.88;105621;1254;75279;-53
2023/09/29 10:27:34;;;;;;;10.90;6.70;;;;;;;25.17;35.53;101411.15;105230;1256;59637;-54
2023/09/29 10:30:18;;;;;;;9.70;6.70;;;;;;;25.29;34.45;101405.09;105473;1260;61508;-54
2023/09/29 10:32:48;;;;;;;9.70;6.40;;;;;;;25.43;33.74;101403.79;105934;1254;64160;-54
2023/09/29 10:35:20;;;;;;;14.10;7.20;;;;;;;25.51;32.92;101403.40;106006;1254;60107;-55
2023/09/29 10:37:55;;;;;;;9.50;7.00;;;;;;;25.59;33.17;101401.53;105243;1260;74905;-59
2023/09/29 10:40:34;;;;;;;9.90;7.10;;;;;;;25.67;33.75;101398.02;105220;1254;60581;-55
2023/09/29 10:43:02;;;;;;;11.80;6.40;;;;;;;25.75;34.06;101392.92;105235;1254;59752;-55
2023/09/29 10:45:36;;;;;;;10.40;7.20;;;;;;;25.81;33.62;101390.02;105100;1254;62836;-57
2023/09/29 10:48:06;;;;;;;9.30;6.40;;;;;;;25.86;33.34;101386.76;105269;1254;64288;-59
2023/09/29 10:50:39;;;;;;;11.40;6.90;;;;;;;25.89;33.10;101381.23;106208;1254;72504;-57
2023/09/29 10:53:07;;;;;;;11.60;6.70;;;;;;;25.88;32.75;101378.14;105344;1254;59747;-57
2023/09/29 10:55:49;;;;;;;9.50;6.30;;;;;;;25.86;32.22;101373.73;106042;1260;59552;-55
2023/09/29 10:58:18;;;;;;;9.80;6.60;;;;;;;25.88;32.80;101370.88;105154;1260;64265;-57
2023/09/29 11:00:52;;;;;;;8.50;6.30;;;;;;;25.93;33.30;101369.59;105802;1257;60643;-54
2023/09/29 11:03:27;;;;;;;9.20;6.40;;;;;;;26.02;33.09;101372.10;105208;1254;64168;-56
2023/09/29 11:06:03;;;;;;;12.70;7.40;;;;;;;26.09;32.59;101364.66;108999;1254;57719;-57
2023/09/29 11:08:38;;;;;;;14.60;6.80;;;;;;;26.11;31.88;101362.84;108645;1254;59335;-54
2023/09/29 11:11:06;;;;;;;9.60;7.20;;;;;;;26.09;31.75;101360.77;107893;1257;64169;-56
2023/09/29 11:13:34;;;;;;;9.00;6.70;;;;;;;26.14;32.61;101352.31;106113;1258;71370;-56
2023/09/29 11:16:04;;;;;;;10.10;6.60;;;;;;;26.18;32.35;101352.48;105029;1259;62880;-55
2023/09/29 11:18:33;;;;;;;9.20;6.90;;;;;;;26.21;32.51;101348.17;104917;1254;60559;-56
2023/09/29 11:21:12;;;;;;;15.90;7.20;;;;;;;26.20;32.06;101345.60;105180;1260;60450;-61
2023/09/29 11:23:44;;;;;;;13.20;6.70;;;;;;;26.12;31.49;101343.22;105012;1255;63756;-59
2023/09/29 11:26:12;;;;;;;9.80;6.60;;;;;;;26.06;31.30;101337.80;105099;1254;61605;-59
2023/09/29 11:28:44;;;;;;;14.60;7.10;;;;;;;26.07;31.89;101337.27;105088;1260;74792;-61